sensor_id;sensor_type;location;lat;lon;timestamp;pressure;altitude;pressure_sealevel;temperature;humidity
7768;BME280;3928;42.626;23.382;2023-06-10T00:00:26;93808.56;;;21.48;91.09
7768;BME280;3928;42.626;23.382;2023-06-10T00:02:53;93809.88;;;21.41;89.40
7768;BME280;3928;42.626;23.382;2023-06-10T00:05:20;93808.03;;;21.43;89.30
7768;BME280;3928;42.626;23.382;2023-06-10T00:07:49;93806.66;;;21.38;88.38
7768;BME280;3928;42.626;23.382;2023-06-10T00:10:16;93812.59;;;21.40;87.58
7768;BME280;3928;42.626;23.382;2023-06-10T00:12:43;93799.75;;;20.97;88.32
7768;BME280;3928;42.626;23.382;2023-06-10T00:15:10;93804.56;;;21.03;88.06
7768;BME280;3928;42.626;23.382;2023-06-10T00:17:37;93802.78;;;21.03;88.46
7768;BME280;3928;42.626;23.382;2023-06-10T00:20:06;93805.59;;;21.00;88.23
7768;BME280;3928;42.626;23.382;2023-06-10T00:22:34;93809.72;;;20.90;88.29
7768;BME280;3928;42.626;23.382;2023-06-10T00:25:03;93801.91;;;20.90;88.96
7768;BME280;3928;42.626;23.382;2023-06-10T00:27:30;93804.19;;;20.95;88.95
7768;BME280;3928;42.626;23.382;2023-06-10T00:30:01;93808.19;;;21.00;89.60
7768;BME280;3928;42.626;23.382;2023-06-10T00:32:29;93816.44;;;21.07;89.41
7768;BME280;3928;42.626;23.382;2023-06-10T00:34:56;93811.69;;;21.14;89.24
7768;BME280;3928;42.626;23.382;2023-06-10T00:37:23;93824.34;;;21.20;89.08
7768;BME280;3928;42.626;23.382;2023-06-10T00:39:50;93820.50;;;21.25;88.87
7768;BME280;3928;42.626;23.382;2023-06-10T00:42:18;93812.38;;;21.30;88.91
7768;BME280;3928;42.626;23.382;2023-06-10T00:44:45;93812.81;;;21.37;89.21
7768;BME280;3928;42.626;23.382;2023-06-10T00:47:12;93811.56;;;21.42;89.13
7768;BME280;3928;42.626;23.382;2023-06-10T00:49:39;93815.44;;;21.49;89.49
7768;BME280;3928;42.626;23.382;2023-06-10T00:52:07;93808.44;;;21.50;89.69
7768;BME280;3928;42.626;23.382;2023-06-10T00:54:35;93808.34;;;21.51;89.76
7768;BME280;3928;42.626;23.382;2023-06-10T00:57:04;93805.31;;;21.57;89.79
7768;BME280;3928;42.626;23.382;2023-06-10T00:59:33;93819.44;;;21.68;90.24
7768;BME280;3928;42.626;23.382;2023-06-10T01:02:01;93816.63;;;21.71;90.17
7768;BME280;3928;42.626;23.382;2023-06-10T01:04:29;93819.97;;;21.73;90.03
7768;BME280;3928;42.626;23.382;2023-06-10T01:07:00;93815.56;;;21.73;90.17
7768;BME280;3928;42.626;23.382;2023-06-10T01:09:38;93814.72;;;21.73;90.39
7768;BME280;3928;42.626;23.382;2023-06-10T01:12:12;93815.16;;;21.67;91.33
7768;BME280;3928;42.626;23.382;2023-06-10T01:14:43;93809.50;;;21.47;92.47
7768;BME280;3928;42.626;23.382;2023-06-10T01:17:11;93791.31;;;21.33;92.93
7768;BME280;3928;42.626;23.382;2023-06-10T01:19:37;93818.63;;;21.27;94.10
7768;BME280;3928;42.626;23.382;2023-06-10T01:22:07;93814.25;;;21.28;94.48
7768;BME280;3928;42.626;23.382;2023-06-10T01:24:36;93813.75;;;21.36;94.25
7768;BME280;3928;42.626;23.382;2023-06-10T01:27:10;93819.59;;;21.39;93.89
7768;BME280;3928;42.626;23.382;2023-06-10T01:29:43;93822.00;;;21.42;93.46
7768;BME280;3928;42.626;23.382;2023-06-10T01:32:15;93818.25;;;21.46;93.34
7768;BME280;3928;42.626;23.382;2023-06-10T01:34:44;93816.16;;;21.51;93.05
7768;BME280;3928;42.626;23.382;2023-06-10T01:37:14;93816.72;;;21.56;92.90
7768;BME280;3928;42.626;23.382;2023-06-10T01:39:42;93813.06;;;21.59;93.14
7768;BME280;3928;42.626;23.382;2023-06-10T01:42:10;93815.56;;;21.60;93.40
7768;BME280;3928;42.626;23.382;2023-06-10T01:44:39;93814.72;;;21.60;92.88
7768;BME280;3928;42.626;23.382;2023-06-10T01:47:07;93816.19;;;21.64;92.54
7768;BME280;3928;42.626;23.382;2023-06-10T01:49:34;93819.72;;;21.63;92.12
7768;BME280;3928;42.626;23.382;2023-06-10T01:52:01;93814.50;;;21.63;91.83
7768;BME280;3928;42.626;23.382;2023-06-10T01:54:29;93811.50;;;21.69;91.39
7768;BME280;3928;42.626;23.382;2023-06-10T01:56:56;93818.91;;;21.63;91.29
7768;BME280;3928;42.626;23.382;2023-06-10T01:59:22;93810.13;;;21.51;91.63
7768;BME280;3928;42.626;23.382;2023-06-10T02:01:49;93811.56;;;21.42;92.44
7768;BME280;3928;42.626;23.382;2023-06-10T02:04:16;93805.09;;;21.35;93.45
7768;BME280;3928;42.626;23.382;2023-06-10T02:06:43;93802.72;;;21.18;95.08
7768;BME280;3928;42.626;23.382;2023-06-10T02:09:10;93802.53;;;20.94;96.60
7768;BME280;3928;42.626;23.382;2023-06-10T02:11:38;93808.19;;;21.00;96.95
7768;BME280;3928;42.626;23.382;2023-06-10T02:14:05;93803.94;;;20.99;96.84
7768;BME280;3928;42.626;23.382;2023-06-10T02:16:32;93803.13;;;21.12;96.13
7768;BME280;3928;42.626;23.382;2023-06-10T02:18:59;93796.88;;;21.14;95.51
7768;BME280;3928;42.626;23.382;2023-06-10T02:21:26;93790.09;;;21.24;95.07
7768;BME280;3928;42.626;23.382;2023-06-10T02:23:52;93788.47;;;21.36;94.69
7768;BME280;3928;42.626;23.382;2023-06-10T02:26:19;93789.22;;;21.38;94.24
7768;BME280;3928;42.626;23.382;2023-06-10T02:28:48;93779.31;;;21.43;93.94
7768;BME280;3928;42.626;23.382;2023-06-10T02:31:14;93781.59;;;21.48;93.90
7768;BME280;3928;42.626;23.382;2023-06-10T02:33:43;93783.91;;;21.13;93.80
7768;BME280;3928;42.626;23.382;2023-06-10T02:36:10;93786.84;;;20.54;95.91
7768;BME280;3928;42.626;23.382;2023-06-10T02:38:38;93782.59;;;20.39;96.26
7768;BME280;3928;42.626;23.382;2023-06-10T02:41:05;93787.31;;;20.47;96.02
7768;BME280;3928;42.626;23.382;2023-06-10T02:43:32;93776.41;;;20.54;95.80
7768;BME280;3928;42.626;23.382;2023-06-10T02:46:00;93776.09;;;20.73;94.97
7768;BME280;3928;42.626;23.382;2023-06-10T02:48:27;93772.03;;;20.82;94.59
7768;BME280;3928;42.626;23.382;2023-06-10T02:50:54;93777.25;;;20.82;93.48
7768;BME280;3928;42.626;23.382;2023-06-10T02:53:21;93776.13;;;20.86;93.18
7768;BME280;3928;42.626;23.382;2023-06-10T02:55:48;93760.81;;;20.67;94.01
7768;BME280;3928;42.626;23.382;2023-06-10T02:58:15;93770.13;;;20.44;95.01
7768;BME280;3928;42.626;23.382;2023-06-10T03:00:42;93760.22;;;20.35;94.92
7768;BME280;3928;42.626;23.382;2023-06-10T03:03:11;93770.38;;;20.54;94.55
7768;BME280;3928;42.626;23.382;2023-06-10T03:05:38;93761.03;;;20.64;93.98
7768;BME280;3928;42.626;23.382;2023-06-10T03:08:05;93776.47;;;20.67;93.28
7768;BME280;3928;42.626;23.382;2023-06-10T03:10:32;93773.03;;;20.66;92.84
7768;BME280;3928;42.626;23.382;2023-06-10T03:12:59;93768.34;;;20.71;92.42
7768;BME280;3928;42.626;23.382;2023-06-10T03:15:26;93775.47;;;20.82;91.92
7768;BME280;3928;42.626;23.382;2023-06-10T03:17:54;93766.22;;;20.91;91.51
7768;BME280;3928;42.626;23.382;2023-06-10T03:20:23;93771.06;;;20.97;90.94
7768;BME280;3928;42.626;23.382;2023-06-10T03:22:51;93774.72;;;21.07;91.12
7768;BME280;3928;42.626;23.382;2023-06-10T03:25:18;93773.47;;;21.13;91.19
7768;BME280;3928;42.626;23.382;2023-06-10T03:27:46;93778.28;;;21.19;90.72
7768;BME280;3928;42.626;23.382;2023-06-10T03:30:13;93781.44;;;21.24;90.55
7768;BME280;3928;42.626;23.382;2023-06-10T03:32:40;93777.72;;;21.28;90.51
7768;BME280;3928;42.626;23.382;2023-06-10T03:35:08;93786.09;;;21.33;88.87
7768;BME280;3928;42.626;23.382;2023-06-10T03:37:36;93787.59;;;21.23;88.15
7768;BME280;3928;42.626;23.382;2023-06-10T03:40:04;93792.25;;;21.32;88.11
7768;BME280;3928;42.626;23.382;2023-06-10T03:42:31;93786.59;;;21.38;88.41
7768;BME280;3928;42.626;23.382;2023-06-10T03:44:58;93791.31;;;21.46;88.46
7768;BME280;3928;42.626;23.382;2023-06-10T03:47:24;93792.88;;;21.48;88.69
7768;BME280;3928;42.626;23.382;2023-06-10T03:49:51;93807.09;;;21.57;88.77
7768;BME280;3928;42.626;23.382;2023-06-10T03:52:19;93796.78;;;21.55;88.88
7768;BME280;3928;42.626;23.382;2023-06-10T03:54:47;93809.00;;;21.68;88.73
7768;BME280;3928;42.626;23.382;2023-06-10T03:57:14;93804.41;;;21.71;89.43
7768;BME280;3928;42.626;23.382;2023-06-10T03:59:40;93800.50;;;21.77;89.79
7768;BME280;3928;42.626;23.382;2023-06-10T04:02:07;93801.28;;;21.79;90.49
7768;BME280;3928;42.626;23.382;2023-06-10T04:04:34;93798.44;;;21.82;90.73
7768;BME280;3928;42.626;23.382;2023-06-10T04:07:01;93783.81;;;21.79;91.04
7768;BME280;3928;42.626;23.382;2023-06-10T04:09:28;93805.94;;;21.86;90.55
7768;BME280;3928;42.626;23.382;2023-06-10T04:11:56;93782.13;;;21.78;90.38
7768;BME280;3928;42.626;23.382;2023-06-10T04:14:23;93804.50;;;21.95;89.61
7768;BME280;3928;42.626;23.382;2023-06-10T04:16:50;93801.34;;;21.90;89.23
7768;BME280;3928;42.626;23.382;2023-06-10T04:19:17;93805.13;;;21.86;89.25
7768;BME280;3928;42.626;23.382;2023-06-10T04:21:43;93808.91;;;21.82;89.86
7768;BME280;3928;42.626;23.382;2023-06-10T04:24:10;93813.38;;;21.80;89.62
7768;BME280;3928;42.626;23.382;2023-06-10T04:26:37;93820.38;;;21.67;90.16
7768;BME280;3928;42.626;23.382;2023-06-10T04:29:05;93814.28;;;21.66;90.55
7768;BME280;3928;42.626;23.382;2023-06-10T04:31:32;93811.69;;;21.66;90.96
7768;BME280;3928;42.626;23.382;2023-06-10T04:33:59;93808.66;;;21.59;90.91
7768;BME280;3928;42.626;23.382;2023-06-10T04:36:26;93804.06;;;21.50;90.90
7768;BME280;3928;42.626;23.382;2023-06-10T04:38:54;93808.44;;;21.50;91.34
7768;BME280;3928;42.626;23.382;2023-06-10T04:41:21;93810.09;;;21.38;91.54
7768;BME280;3928;42.626;23.382;2023-06-10T04:43:48;93817.41;;;21.33;91.42
7768;BME280;3928;42.626;23.382;2023-06-10T04:46:16;93813.53;;;20.99;92.37
7768;BME280;3928;42.626;23.382;2023-06-10T04:48:43;93811.59;;;20.88;92.53
7768;BME280;3928;42.626;23.382;2023-06-10T04:51:12;93815.16;;;20.87;93.33
7768;BME280;3928;42.626;23.382;2023-06-10T04:53:39;93805.75;;;20.85;93.58
7768;BME280;3928;42.626;23.382;2023-06-10T04:56:07;93802.84;;;20.89;93.32
7768;BME280;3928;42.626;23.382;2023-06-10T04:58:34;93800.97;;;20.91;93.80
7768;BME280;3928;42.626;23.382;2023-06-10T05:01:01;93801.47;;;20.84;93.72
7768;BME280;3928;42.626;23.382;2023-06-10T05:03:29;93803.28;;;20.69;94.76
7768;BME280;3928;42.626;23.382;2023-06-10T05:05:56;93796.59;;;20.65;95.15
7768;BME280;3928;42.626;23.382;2023-06-10T05:08:23;93813.38;;;20.61;95.85
7768;BME280;3928;42.626;23.382;2023-06-10T05:10:50;93807.41;;;20.59;96.23
7768;BME280;3928;42.626;23.382;2023-06-10T05:13:17;93805.47;;;20.34;97.44
7768;BME280;3928;42.626;23.382;2023-06-10T05:15:44;93804.47;;;20.36;98.54
7768;BME280;3928;42.626;23.382;2023-06-10T05:18:11;93801.94;;;20.35;99.05
7768;BME280;3928;42.626;23.382;2023-06-10T05:20:40;93800.34;;;20.47;98.16
7768;BME280;3928;42.626;23.382;2023-06-10T05:23:07;93790.09;;;20.58;99.77
7768;BME280;3928;42.626;23.382;2023-06-10T05:25:34;93799.16;;;20.79;100.00
7768;BME280;3928;42.626;23.382;2023-06-10T05:28:01;93792.44;;;21.02;99.78
7768;BME280;3928;42.626;23.382;2023-06-10T05:30:28;93781.09;;;21.16;99.90
7768;BME280;3928;42.626;23.382;2023-06-10T05:32:55;93804.91;;;21.51;98.13
7768;BME280;3928;42.626;23.382;2023-06-10T05:35:23;93795.72;;;21.71;97.44
7768;BME280;3928;42.626;23.382;2023-06-10T05:37:51;93797.06;;;21.89;94.38
7768;BME280;3928;42.626;23.382;2023-06-10T05:40:18;93792.28;;;22.08;94.57
7768;BME280;3928;42.626;23.382;2023-06-10T05:42:45;93800.81;;;22.23;91.55
7768;BME280;3928;42.626;23.382;2023-06-10T05:45:12;93801.34;;;22.28;90.92
7768;BME280;3928;42.626;23.382;2023-06-10T05:47:38;93804.59;;;22.32;89.21
7768;BME280;3928;42.626;23.382;2023-06-10T05:50:06;93802.38;;;22.38;89.87
7768;BME280;3928;42.626;23.382;2023-06-10T05:52:34;93817.50;;;22.46;90.67
7768;BME280;3928;42.626;23.382;2023-06-10T05:55:02;93810.63;;;22.45;89.45
7768;BME280;3928;42.626;23.382;2023-06-10T05:57:29;93810.09;;;22.53;89.53
7768;BME280;3928;42.626;23.382;2023-06-10T05:59:56;93814.13;;;22.57;89.88
7768;BME280;3928;42.626;23.382;2023-06-10T06:02:23;93822.19;;;22.66;89.63
7768;BME280;3928;42.626;23.382;2023-06-10T06:04:50;93816.50;;;22.72;87.92
7768;BME280;3928;42.626;23.382;2023-06-10T06:07:18;93817.97;;;22.76;87.78
7768;BME280;3928;42.626;23.382;2023-06-10T06:09:46;93816.06;;;22.79;88.04
7768;BME280;3928;42.626;23.382;2023-06-10T06:12:20;93622.94;;;21.64;88.88
7768;BME280;3928;42.626;23.382;2023-06-10T06:14:47;93825.03;;;23.00;89.21
7768;BME280;3928;42.626;23.382;2023-06-10T06:17:14;93813.53;;;22.90;88.97
7768;BME280;3928;42.626;23.382;2023-06-10T06:19:42;93814.66;;;22.98;89.85
7768;BME280;3928;42.626;23.382;2023-06-10T06:24:54;93817.72;;;23.16;89.26
7768;BME280;3928;42.626;23.382;2023-06-10T06:27:22;93815.09;;;23.16;88.59
7768;BME280;3928;42.626;23.382;2023-06-10T06:29:49;93812.19;;;23.08;88.19
7768;BME280;3928;42.626;23.382;2023-06-10T06:32:16;93818.06;;;23.12;87.70
7768;BME280;3928;42.626;23.382;2023-06-10T06:34:43;93813.53;;;22.90;88.17
7768;BME280;3928;42.626;23.382;2023-06-10T06:37:10;93810.97;;;23.01;87.95
7768;BME280;3928;42.626;23.382;2023-06-10T06:39:37;93798.06;;;22.87;88.40
7768;BME280;3928;42.626;23.382;2023-06-10T06:42:04;93818.53;;;22.93;88.66
7768;BME280;3928;42.626;23.382;2023-06-10T06:44:33;93819.66;;;23.01;89.45
7768;BME280;3928;42.626;23.382;2023-06-10T06:47:00;93805.53;;;23.04;89.66
7768;BME280;3928;42.626;23.382;2023-06-10T06:49:26;93808.66;;;23.20;89.67
7768;BME280;3928;42.626;23.382;2023-06-10T06:51:53;93808.50;;;23.34;88.51
7768;BME280;3928;42.626;23.382;2023-06-10T06:54:20;93810.38;;;23.21;87.73
7768;BME280;3928;42.626;23.382;2023-06-10T06:56:47;93809.56;;;23.32;88.59
7768;BME280;3928;42.626;23.382;2023-06-10T06:59:14;93807.88;;;23.31;87.19
7768;BME280;3928;42.626;23.382;2023-06-10T07:01:44;93812.44;;;23.40;87.78
7768;BME280;3928;42.626;23.382;2023-06-10T07:04:11;93801.28;;;23.49;88.63
7768;BME280;3928;42.626;23.382;2023-06-10T07:06:38;93807.31;;;23.62;89.06
7768;BME280;3928;42.626;23.382;2023-06-10T07:09:05;93808.03;;;23.76;88.18
7768;BME280;3928;42.626;23.382;2023-06-10T07:11:32;93796.03;;;23.84;87.76
7768;BME280;3928;42.626;23.382;2023-06-10T07:13:58;93799.50;;;23.96;87.34
7768;BME280;3928;42.626;23.382;2023-06-10T07:16:25;93796.19;;;24.16;86.45
7768;BME280;3928;42.626;23.382;2023-06-10T07:18:53;93801.78;;;24.23;84.62
7768;BME280;3928;42.626;23.382;2023-06-10T07:21:20;93799.44;;;24.31;84.25
7768;BME280;3928;42.626;23.382;2023-06-10T07:23:48;93771.53;;;24.30;83.46
7768;BME280;3928;42.626;23.382;2023-06-10T07:26:16;93793.56;;;24.28;82.55
7768;BME280;3928;42.626;23.382;2023-06-10T07:28:43;93792.22;;;23.88;82.79
7768;BME280;3928;42.626;23.382;2023-06-10T07:31:09;93786.03;;;24.01;83.71
7768;BME280;3928;42.626;23.382;2023-06-10T07:33:37;93786.41;;;24.18;83.01
7768;BME280;3928;42.626;23.382;2023-06-10T07:36:06;93788.44;;;24.37;81.43
7768;BME280;3928;42.626;23.382;2023-06-10T07:38:33;93790.34;;;24.58;81.75
7768;BME280;3928;42.626;23.382;2023-06-10T07:41:00;93784.22;;;24.79;78.74
7768;BME280;3928;42.626;23.382;2023-06-10T07:43:27;93778.09;;;25.01;78.28
7768;BME280;3928;42.626;23.382;2023-06-10T07:45:54;93782.88;;;25.28;73.34
7768;BME280;3928;42.626;23.382;2023-06-10T07:48:21;93786.22;;;25.51;71.86
7768;BME280;3928;42.626;23.382;2023-06-10T07:50:47;93790.16;;;25.78;72.40
7768;BME280;3928;42.626;23.382;2023-06-10T07:53:16;93786.69;;;25.98;68.94
7768;BME280;3928;42.626;23.382;2023-06-10T07:55:43;93788.38;;;26.30;70.10
7768;BME280;3928;42.626;23.382;2023-06-10T07:58:09;93759.63;;;26.38;64.87
7768;BME280;3928;42.626;23.382;2023-06-10T08:00:36;93792.41;;;26.64;64.99
7768;BME280;3928;42.626;23.382;2023-06-10T08:03:03;93790.09;;;26.80;64.71
7768;BME280;3928;42.626;23.382;2023-06-10T08:05:30;93791.91;;;26.90;63.16
7768;BME280;3928;42.626;23.382;2023-06-10T08:07:57;93789.06;;;27.12;64.03
7768;BME280;3928;42.626;23.382;2023-06-10T08:10:25;93795.00;;;27.33;59.28
7768;BME280;3928;42.626;23.382;2023-06-10T08:12:52;93791.41;;;27.34;57.72
7768;BME280;3928;42.626;23.382;2023-06-10T08:15:19;93783.09;;;27.49;54.50
7768;BME280;3928;42.626;23.382;2023-06-10T08:17:46;93780.03;;;27.63;55.17
7768;BME280;3928;42.626;23.382;2023-06-10T08:20:14;93779.75;;;27.85;57.05
7768;BME280;3928;42.626;23.382;2023-06-10T08:22:41;93756.13;;;27.93;54.94
7768;BME280;3928;42.626;23.382;2023-06-10T08:25:09;93779.88;;;28.40;55.73
7768;BME280;3928;42.626;23.382;2023-06-10T08:27:37;93778.69;;;28.52;52.66
7768;BME280;3928;42.626;23.382;2023-06-10T08:30:05;93778.66;;;28.62;52.73
7768;BME280;3928;42.626;23.382;2023-06-10T08:32:33;93763.16;;;28.77;52.27
7768;BME280;3928;42.626;23.382;2023-06-10T08:35:00;93752.41;;;28.88;47.50
7768;BME280;3928;42.626;23.382;2023-06-10T08:37:26;93768.38;;;29.14;47.66
7768;BME280;3928;42.626;23.382;2023-06-10T08:39:53;93763.63;;;29.18;48.02
7768;BME280;3928;42.626;23.382;2023-06-10T08:42:23;93763.00;;;29.24;48.13
7768;BME280;3928;42.626;23.382;2023-06-10T08:44:54;93767.91;;;29.19;46.92
7768;BME280;3928;42.626;23.382;2023-06-10T08:47:23;93766.16;;;29.09;47.26
7768;BME280;3928;42.626;23.382;2023-06-10T08:49:50;93767.06;;;29.00;49.04
7768;BME280;3928;42.626;23.382;2023-06-10T08:52:20;93759.75;;;29.12;46.23
7768;BME280;3928;42.626;23.382;2023-06-10T08:54:52;93760.31;;;29.16;42.96
7768;BME280;3928;42.626;23.382;2023-06-10T08:57:20;93756.22;;;29.21;42.09
7768;BME280;3928;42.626;23.382;2023-06-10T08:59:48;93747.69;;;29.27;42.71
7768;BME280;3928;42.626;23.382;2023-06-10T09:02:16;93746.28;;;29.51;43.75
7768;BME280;3928;42.626;23.382;2023-06-10T09:04:46;93748.72;;;29.70;43.13
7768;BME280;3928;42.626;23.382;2023-06-10T09:07:13;93733.75;;;29.79;39.80
7768;BME280;3928;42.626;23.382;2023-06-10T09:09:42;93737.38;;;29.78;39.80
7768;BME280;3928;42.626;23.382;2023-06-10T09:12:09;93743.13;;;29.99;39.53
7768;BME280;3928;42.626;23.382;2023-06-10T09:14:36;93736.97;;;30.16;39.28
7768;BME280;3928;42.626;23.382;2023-06-10T09:17:03;93746.97;;;30.31;39.09
7768;BME280;3928;42.626;23.382;2023-06-10T09:19:32;93726.88;;;30.46;39.52
7768;BME280;3928;42.626;23.382;2023-06-10T09:21:59;93741.59;;;30.82;38.81
7768;BME280;3928;42.626;23.382;2023-06-10T09:24:25;93739.63;;;31.01;38.45
7768;BME280;3928;42.626;23.382;2023-06-10T09:27:02;93737.03;;;31.17;36.44
7768;BME280;3928;42.626;23.382;2023-06-10T09:29:29;93736.34;;;30.56;36.38
7768;BME280;3928;42.626;23.382;2023-06-10T09:31:56;93737.22;;;30.65;37.64
7768;BME280;3928;42.626;23.382;2023-06-10T09:34:25;93730.09;;;30.66;37.64
7768;BME280;3928;42.626;23.382;2023-06-10T09:36:53;93728.81;;;30.70;38.18
7768;BME280;3928;42.626;23.382;2023-06-10T09:39:21;93725.88;;;30.47;37.49
7768;BME280;3928;42.626;23.382;2023-06-10T09:41:48;93727.44;;;30.66;38.74
7768;BME280;3928;42.626;23.382;2023-06-10T09:44:16;93728.38;;;30.91;38.45
7768;BME280;3928;42.626;23.382;2023-06-10T09:46:45;93725.06;;;31.13;37.57
7768;BME280;3928;42.626;23.382;2023-06-10T09:49:13;93722.31;;;31.31;37.88
7768;BME280;3928;42.626;23.382;2023-06-10T09:51:49;93724.47;;;31.43;35.11
7768;BME280;3928;42.626;23.382;2023-06-10T09:54:18;93678.72;;;31.25;34.85
7768;BME280;3928;42.626;23.382;2023-06-10T09:56:47;93725.81;;;31.56;34.80
7768;BME280;3928;42.626;23.382;2023-06-10T09:59:14;93726.47;;;31.58;34.85
7768;BME280;3928;42.626;23.382;2023-06-10T10:01:41;93694.97;;;31.63;36.44
7768;BME280;3928;42.626;23.382;2023-06-10T10:04:08;93716.50;;;31.84;35.17
7768;BME280;3928;42.626;23.382;2023-06-10T10:06:35;93715.84;;;31.90;34.99
7768;BME280;3928;42.626;23.382;2023-06-10T10:09:03;93713.84;;;32.00;35.15
7768;BME280;3928;42.626;23.382;2023-06-10T10:11:33;93705.53;;;32.12;35.05
7768;BME280;3928;42.626;23.382;2023-06-10T10:14:04;93646.16;;;31.96;34.62
7768;BME280;3928;42.626;23.382;2023-06-10T10:16:35;93696.09;;;32.56;34.07
7768;BME280;3928;42.626;23.382;2023-06-10T10:19:07;93689.41;;;32.69;32.47
7768;BME280;3928;42.626;23.382;2023-06-10T10:21:38;93692.81;;;32.77;34.21
7768;BME280;3928;42.626;23.382;2023-06-10T10:24:12;93684.97;;;32.92;34.27
7768;BME280;3928;42.626;23.382;2023-06-10T10:26:43;93663.22;;;32.57;34.26
7768;BME280;3928;42.626;23.382;2023-06-10T10:29:19;93691.34;;;32.83;34.61
7768;BME280;3928;42.626;23.382;2023-06-10T10:31:48;93692.19;;;33.06;34.25
7768;BME280;3928;42.626;23.382;2023-06-10T10:34:20;93685.47;;;33.19;33.31
7768;BME280;3928;42.626;23.382;2023-06-10T10:36:49;93693.78;;;33.15;32.73
7768;BME280;3928;42.626;23.382;2023-06-10T10:39:16;93688.91;;;33.27;32.84
7768;BME280;3928;42.626;23.382;2023-06-10T10:41:46;93679.53;;;33.31;33.11
7768;BME280;3928;42.626;23.382;2023-06-10T10:44:14;93680.22;;;33.02;31.42
7768;BME280;3928;42.626;23.382;2023-06-10T10:46:42;93680.72;;;32.75;30.97
7768;BME280;3928;42.626;23.382;2023-06-10T10:49:11;93674.75;;;32.73;32.82
7768;BME280;3928;42.626;23.382;2023-06-10T10:51:54;93668.47;;;32.66;34.84
7768;BME280;3928;42.626;23.382;2023-06-10T10:54:28;93671.50;;;32.54;32.90
7768;BME280;3928;42.626;23.382;2023-06-10T10:57:14;93666.81;;;32.65;33.60
7768;BME280;3928;42.626;23.382;2023-06-10T10:59:55;93660.56;;;32.89;32.72
7768;BME280;3928;42.626;23.382;2023-06-10T11:02:33;93666.59;;;32.82;30.89
7768;BME280;3928;42.626;23.382;2023-06-10T11:05:01;93666.63;;;32.66;33.21
7768;BME280;3928;42.626;23.382;2023-06-10T11:07:30;93652.06;;;32.62;33.83
7768;BME280;3928;42.626;23.382;2023-06-10T11:09:58;93651.84;;;32.72;32.55
7768;BME280;3928;42.626;23.382;2023-06-10T11:12:42;93653.41;;;32.89;32.21
7768;BME280;3928;42.626;23.382;2023-06-10T11:15:18;93645.81;;;32.78;30.24
7768;BME280;3928;42.626;23.382;2023-06-10T11:18:11;93645.94;;;32.53;33.64
7768;BME280;3928;42.626;23.382;2023-06-10T11:20:54;93637.16;;;32.53;32.07
7768;BME280;3928;42.626;23.382;2023-06-10T11:23:32;93640.03;;;32.74;31.87
7768;BME280;3928;42.626;23.382;2023-06-10T11:26:20;93637.78;;;32.94;32.57
7768;BME280;3928;42.626;23.382;2023-06-10T11:29:08;93639.00;;;33.06;32.26
7768;BME280;3928;42.626;23.382;2023-06-10T11:31:46;93633.56;;;33.23;30.68
7768;BME280;3928;42.626;23.382;2023-06-10T11:34:15;93615.59;;;33.25;31.17
7768;BME280;3928;42.626;23.382;2023-06-10T11:36:49;93631.78;;;33.38;31.08
7768;BME280;3928;42.626;23.382;2023-06-10T11:39:17;93627.16;;;33.55;30.62
7768;BME280;3928;42.626;23.382;2023-06-10T11:41:45;93613.84;;;33.40;32.00
7768;BME280;3928;42.626;23.382;2023-06-10T11:44:13;93627.00;;;33.33;31.95
7768;BME280;3928;42.626;23.382;2023-06-10T11:46:41;93622.69;;;33.09;31.09
7768;BME280;3928;42.626;23.382;2023-06-10T11:49:09;93619.44;;;32.99;32.36
7768;BME280;3928;42.626;23.382;2023-06-10T11:51:36;93614.53;;;32.88;33.49
7768;BME280;3928;42.626;23.382;2023-06-10T11:54:04;93610.25;;;32.79;33.06
7768;BME280;3928;42.626;23.382;2023-06-10T11:56:32;93602.63;;;32.84;32.39
7768;BME280;3928;42.626;23.382;2023-06-10T11:59:00;93597.38;;;32.68;30.83
7768;BME280;3928;42.626;23.382;2023-06-10T12:01:32;93610.97;;;32.73;30.84
7768;BME280;3928;42.626;23.382;2023-06-10T12:04:01;93607.66;;;32.71;33.22
7768;BME280;3928;42.626;23.382;2023-06-10T12:06:37;93599.47;;;32.57;32.73
7768;BME280;3928;42.626;23.382;2023-06-10T12:09:05;93613.81;;;32.40;33.05
7768;BME280;3928;42.626;23.382;2023-06-10T12:11:32;93608.41;;;32.17;33.75
7768;BME280;3928;42.626;23.382;2023-06-10T12:13:59;93604.94;;;32.17;32.37
7768;BME280;3928;42.626;23.382;2023-06-10T12:16:28;93601.63;;;32.15;32.16
7768;BME280;3928;42.626;23.382;2023-06-10T12:19:02;93604.13;;;32.16;32.51
7768;BME280;3928;42.626;23.382;2023-06-10T12:21:30;93602.75;;;32.20;32.80
7768;BME280;3928;42.626;23.382;2023-06-10T12:24:08;93598.94;;;32.23;33.69
7768;BME280;3928;42.626;23.382;2023-06-10T12:26:36;93578.94;;;32.04;33.48
7768;BME280;3928;42.626;23.382;2023-06-10T12:29:16;93602.00;;;32.12;34.22
7768;BME280;3928;42.626;23.382;2023-06-10T12:31:54;93586.09;;;32.04;33.65
7768;BME280;3928;42.626;23.382;2023-06-10T12:34:32;93597.41;;;31.97;31.49
7768;BME280;3928;42.626;23.382;2023-06-10T12:36:59;93594.69;;;32.06;33.63
7768;BME280;3928;42.626;23.382;2023-06-10T12:39:26;93589.09;;;32.00;33.68
7768;BME280;3928;42.626;23.382;2023-06-10T12:41:54;93584.50;;;31.86;33.65
7768;BME280;3928;42.626;23.382;2023-06-10T12:44:32;93579.56;;;31.59;33.35
7768;BME280;3928;42.626;23.382;2023-06-10T12:46:59;93582.56;;;31.64;33.79
7768;BME280;3928;42.626;23.382;2023-06-10T12:49:27;93569.28;;;31.64;33.25
7768;BME280;3928;42.626;23.382;2023-06-10T12:51:55;93569.00;;;31.51;32.71
7768;BME280;3928;42.626;23.382;2023-06-10T12:54:21;93562.88;;;31.42;34.65
7768;BME280;3928;42.626;23.382;2023-06-10T12:56:49;93558.94;;;31.38;34.78
7768;BME280;3928;42.626;23.382;2023-06-10T12:59:15;93580.16;;;31.30;33.53
7768;BME280;3928;42.626;23.382;2023-06-10T13:01:43;93580.63;;;31.17;32.32
7768;BME280;3928;42.626;23.382;2023-06-10T13:04:10;93576.97;;;31.10;33.18
7768;BME280;3928;42.626;23.382;2023-06-10T13:06:38;93556.09;;;30.99;34.37
7768;BME280;3928;42.626;23.382;2023-06-10T13:09:09;93581.97;;;31.05;34.26
7768;BME280;3928;42.626;23.382;2023-06-10T13:11:36;93576.97;;;31.02;34.19
7768;BME280;3928;42.626;23.382;2023-06-10T13:14:04;93572.69;;;30.93;34.31
7768;BME280;3928;42.626;23.382;2023-06-10T13:16:31;93577.47;;;30.89;34.27
7768;BME280;3928;42.626;23.382;2023-06-10T13:18:59;93585.09;;;30.76;33.95